Time;durP1;ratioP1;P1;durP2;ratioP2;P2;SDS_P1;SDS_P2;PMS_P1;PMS_P2;Temp;Humidity;BMP_temperature;BMP_pressure;BME280_temperature;BME280_humidity;BME280_pressure;Samples;Min_cycle;Max_cycle;Signal;HPM_P1;HPM_P2
2022/02/12 00:00:37;;;;;;;1.27;0.65;;;;;;;;;;2065994;28;20042;-65
2022/02/12 00:01:56;;;;;;;2.90;0.80;;;;;;;;;;2067760;28;20810;-65
2022/02/12 00:03:15;;;;;;;1.60;0.50;;;;;;;;;;2066824;28;20113;-65
2022/02/12 00:04:34;;;;;;;1.77;0.63;;;;;;;;;;2066380;28;20031;-65
2022/02/12 00:05:53;;;;;;;2.08;0.50;;;;;;;;;;2065813;28;20026;-65
2022/02/12 00:07:12;;;;;;;0.85;0.52;;;;;;;;;;2066827;28;20037;-65
2022/02/12 00:08:31;;;;;;;1.08;0.60;;;;;;;;;;2067028;28;20102;-65
2022/02/12 00:09:50;;;;;;;1.23;0.68;;;;;;;;;;2066669;28;20030;-65
2022/02/12 00:11:08;;;;;;;0.60;0.60;;;;;;;;;;2065847;28;20042;-65
2022/02/12 00:12:27;;;;;;;1.38;0.50;;;;;;;;;;2067823;28;20451;-65
2022/02/12 00:13:46;;;;;;;6.07;0.80;;;;;;;;;;2067681;28;20070;-65
2022/02/12 00:15:05;;;;;;;1.60;0.55;;;;;;;;;;2068582;28;20487;-65
2022/02/12 00:16:24;;;;;;;1.38;0.75;;;;;;;;;;2066647;28;20583;-65
2022/02/12 00:17:43;;;;;;;1.55;0.52;;;;;;;;;;2067554;28;20026;-65
2022/02/12 00:19:02;;;;;;;6.88;0.88;;;;;;;;;;2066936;28;20026;-65
2022/02/12 00:20:21;;;;;;;1.25;0.70;;;;;;;;;;2067916;28;20068;-65
2022/02/12 00:21:40;;;;;;;1.85;0.70;;;;;;;;;;2066496;28;20030;-66
2022/02/12 00:22:59;;;;;;;3.85;0.95;;;;;;;;;;2066501;28;20105;-65
2022/02/12 00:24:18;;;;;;;3.70;0.68;;;;;;;;;;2066600;28;20042;-65
2022/02/12 00:25:37;;;;;;;1.77;0.90;;;;;;;;;;2067642;28;20030;-65
2022/02/12 00:26:56;;;;;;;1.17;0.60;;;;;;;;;;2068144;28;20042;-65
2022/02/12 00:28:15;;;;;;;2.33;0.60;;;;;;;;;;2067835;28;20057;-64
2022/02/12 00:29:33;;;;;;;10.55;0.80;;;;;;;;;;2067004;28;20034;-64
2022/02/12 00:30:52;;;;;;;3.55;0.73;;;;;;;;;;2066388;28;20043;-64
2022/02/12 00:32:11;;;;;;;1.65;0.85;;;;;;;;;;2066751;28;20065;-64
2022/02/12 00:33:30;;;;;;;0.60;0.50;;;;;;;;;;2066684;28;20038;-64
2022/02/12 00:34:49;;;;;;;3.45;0.80;;;;;;;;;;2068270;28;20030;-64
2022/02/12 00:36:08;;;;;;;1.85;0.70;;;;;;;;;;2067070;28;20113;-65
2022/02/12 00:37:29;;;;;;;3.80;0.60;;;;;;;;;;2066144;28;20050;-65
2022/02/12 00:38:50;;;;;;;3.03;0.75;;;;;;;;;;2067630;28;20030;-65
2022/02/12 00:40:09;;;;;;;1.02;0.70;;;;;;;;;;2066550;28;20018;-65
2022/02/12 00:41:28;;;;;;;0.90;0.65;;;;;;;;;;2065294;28;20026;-65
2022/02/12 00:42:47;;;;;;;1.73;0.50;;;;;;;;;;2066626;28;20030;-65
2022/02/12 00:44:06;;;;;;;1.60;0.50;;;;;;;;;;2066624;28;20030;-65
2022/02/12 00:45:25;;;;;;;1.83;1.05;;;;;;;;;;2066093;28;20078;-64
2022/02/12 00:46:44;;;;;;;4.07;0.52;;;;;;;;;;2066665;28;20038;-64
2022/02/12 00:48:03;;;;;;;2.22;0.40;;;;;;;;;;2067306;28;20488;-64
2022/02/12 00:49:22;;;;;;;2.92;0.68;;;;;;;;;;2066134;28;20477;-63
2022/02/12 00:50:41;;;;;;;4.47;0.30;;;;;;;;;;2066816;28;20038;-64
2022/02/12 00:52:00;;;;;;;2.42;0.65;;;;;;;;;;2066138;28;20037;-65
2022/02/12 00:53:19;;;;;;;1.13;0.85;;;;;;;;;;2065889;28;20481;-65
2022/02/12 00:54:38;;;;;;;1.70;0.60;;;;;;;;;;2066751;28;20030;-64
2022/02/12 00:55:57;;;;;;;0.90;0.40;;;;;;;;;;2067660;28;20121;-65
2022/02/12 00:57:16;;;;;;;5.70;0.98;;;;;;;;;;2066456;28;20026;-65
2022/02/12 00:58:35;;;;;;;2.58;0.50;;;;;;;;;;2068163;28;20065;-63
2022/02/12 00:59:54;;;;;;;1.00;0.57;;;;;;;;;;2066161;28;20030;-64
2022/02/12 01:01:13;;;;;;;0.73;0.30;;;;;;;;;;2066289;28;20030;-64
2022/02/12 01:02:32;;;;;;;1.15;0.40;;;;;;;;;;2065503;28;20034;-63
2022/02/12 01:03:51;;;;;;;0.47;0.30;;;;;;;;;;2067710;28;20026;-64
2022/02/12 01:05:10;;;;;;;0.68;0.45;;;;;;;;;;2067850;28;20057;-65
2022/02/12 01:06:29;;;;;;;1.75;0.40;;;;;;;;;;2068380;28;20030;-65
2022/02/12 01:07:48;;;;;;;2.95;0.75;;;;;;;;;;2067698;28;20034;-64
2022/02/12 01:09:08;;;;;;;0.93;0.30;;;;;;;;;;2067956;28;20126;-64
2022/02/12 01:10:27;;;;;;;0.85;0.40;;;;;;;;;;2068288;28;20442;-64
2022/02/12 01:11:46;;;;;;;1.45;0.50;;;;;;;;;;2067610;28;20496;-64
2022/02/12 01:13:05;;;;;;;0.98;0.40;;;;;;;;;;2067954;28;20034;-64
2022/02/12 01:14:24;;;;;;;2.28;0.43;;;;;;;;;;2067795;28;20030;-64
2022/02/12 01:15:42;;;;;;;3.88;0.75;;;;;;;;;;2068482;28;20033;-64
2022/02/12 01:17:02;;;;;;;5.72;0.40;;;;;;;;;;2067756;28;20042;-65
2022/02/12 01:18:22;;;;;;;0.82;0.55;;;;;;;;;;2070807;28;20030;-65
2022/02/12 01:19:41;;;;;;;1.27;0.38;;;;;;;;;;2065296;28;20034;-64
2022/02/12 01:21:00;;;;;;;2.25;0.40;;;;;;;;;;2067726;28;20038;-64
2022/02/12 01:22:19;;;;;;;0.65;0.45;;;;;;;;;;2068136;28;20026;-64
2022/02/12 01:23:38;;;;;;;0.52;0.52;;;;;;;;;;2067157;28;20645;-64
2022/02/12 01:24:57;;;;;;;1.40;0.80;;;;;;;;;;2067664;28;20553;-64
2022/02/12 01:26:16;;;;;;;1.83;0.40;;;;;;;;;;2067952;28;20034;-64
2022/02/12 01:27:36;;;;;;;1.38;0.32;;;;;;;;;;2067464;28;20042;-63
2022/02/12 01:28:55;;;;;;;1.58;0.70;;;;;;;;;;2068677;28;20065;-64
2022/02/12 01:30:14;;;;;;;1.65;0.45;;;;;;;;;;2067332;28;20029;-64
2022/02/12 01:31:33;;;;;;;1.73;0.55;;;;;;;;;;2067263;28;20031;-64
2022/02/12 01:32:51;;;;;;;2.95;0.65;;;;;;;;;;2066877;28;20045;-64
2022/02/12 01:34:10;;;;;;;2.08;0.60;;;;;;;;;;2068009;28;20042;-64
2022/02/12 01:35:29;;;;;;;1.42;0.60;;;;;;;;;;2068225;28;20034;-64
2022/02/12 01:36:48;;;;;;;0.68;0.52;;;;;;;;;;2068316;28;20065;-64
2022/02/12 01:38:07;;;;;;;1.73;0.60;;;;;;;;;;2068185;28;20026;-65
2022/02/12 01:39:25;;;;;;;2.53;0.32;;;;;;;;;;2066875;28;20393;-64
2022/02/12 01:40:46;;;;;;;1.17;0.60;;;;;;;;;;2067519;28;20027;-64
2022/02/12 01:42:05;;;;;;;0.65;0.20;;;;;;;;;;2067629;28;20034;-64
2022/02/12 01:43:24;;;;;;;2.72;0.60;;;;;;;;;;2067835;28;20030;-64
2022/02/12 01:44:43;;;;;;;0.50;0.40;;;;;;;;;;2069000;28;20039;-63
2022/02/12 01:46:02;;;;;;;0.93;0.40;;;;;;;;;;2067017;28;20502;-64
2022/02/12 01:47:21;;;;;;;0.85;0.30;;;;;;;;;;2066687;28;20502;-64
2022/02/12 01:48:43;;;;;;;2.17;0.50;;;;;;;;;;2067749;28;20034;-64
2022/02/12 01:50:01;;;;;;;5.15;0.98;;;;;;;;;;2067887;28;20109;-64
2022/02/12 01:51:22;;;;;;;0.43;0.38;;;;;;;;;;2066344;28;20034;-64
2022/02/12 01:52:43;;;;;;;0.98;0.55;;;;;;;;;;2066797;28;20026;-64
2022/02/12 01:54:01;;;;;;;1.13;0.40;;;;;;;;;;2068027;28;20034;-64
2022/02/12 01:55:20;;;;;;;4.07;0.35;;;;;;;;;;2068397;28;20026;-64
2022/02/12 01:56:40;;;;;;;1.25;0.60;;;;;;;;;;2067095;28;20042;-64
2022/02/12 01:57:58;;;;;;;1.20;0.43;;;;;;;;;;2065407;28;20113;-64
2022/02/12 01:59:21;;;;;;;1.27;0.57;;;;;;;;;;2064308;28;20031;-66
2022/02/12 02:00:41;;;;;;;2.28;0.52;;;;;;;;;;2064189;28;20030;-64
2022/02/12 02:02:00;;;;;;;2.13;0.63;;;;;;;;;;2067667;28;20023;-64
2022/02/12 02:03:19;;;;;;;3.67;1.10;;;;;;;;;;2067488;28;20042;-65
2022/02/12 02:04:39;;;;;;;1.38;0.40;;;;;;;;;;2068434;28;20030;-64
2022/02/12 02:05:59;;;;;;;1.45;0.40;;;;;;;;;;2068180;28;20031;-64
2022/02/12 02:07:19;;;;;;;3.22;0.65;;;;;;;;;;2067044;28;20487;-64
2022/02/12 02:08:38;;;;;;;3.38;0.50;;;;;;;;;;2067220;28;20407;-64
2022/02/12 02:09:57;;;;;;;4.95;0.77;;;;;;;;;;2067487;28;20026;-64
2022/02/12 02:11:15;;;;;;;0.55;0.45;;;;;;;;;;2068203;28;20026;-64
2022/02/12 02:12:35;;;;;;;0.95;0.52;;;;;;;;;;2067083;28;20030;-64
2022/02/12 02:13:54;;;;;;;1.23;0.50;;;;;;;;;;2067024;28;20034;-64
2022/02/12 02:15:13;;;;;;;0.63;0.50;;;;;;;;;;2067242;28;20030;-64
2022/02/12 02:16:32;;;;;;;2.63;0.70;;;;;;;;;;2068507;28;20046;-64
2022/02/12 02:17:51;;;;;;;4.22;1.40;;;;;;;;;;2066613;28;20043;-64
2022/02/12 02:19:10;;;;;;;0.73;0.47;;;;;;;;;;2067457;28;20064;-63
2022/02/12 02:20:31;;;;;;;1.10;0.60;;;;;;;;;;2067792;28;20120;-64
2022/02/12 02:21:51;;;;;;;1.65;0.50;;;;;;;;;;2067154;28;20038;-64
2022/02/12 02:23:10;;;;;;;2.45;1.10;;;;;;;;;;2067689;28;20096;-64
2022/02/12 02:24:30;;;;;;;1.90;0.28;;;;;;;;;;2069708;28;20077;-65
2022/02/12 02:25:48;;;;;;;0.90;0.70;;;;;;;;;;2067850;28;20480;-65
2022/02/12 02:27:15;;;;;;;1.20;0.70;;;;;;;;;;2067884;28;20038;-65
2022/02/12 02:28:34;;;;;;;0.55;0.50;;;;;;;;;;2070501;28;20113;-64
2022/02/12 02:29:53;;;;;;;3.53;0.63;;;;;;;;;;2069691;28;20042;-65
2022/02/12 02:31:11;;;;;;;1.38;0.70;;;;;;;;;;2067164;28;20077;-65
2022/02/12 02:32:30;;;;;;;0.50;0.40;;;;;;;;;;2067312;28;20038;-65
2022/02/12 02:33:49;;;;;;;0.88;0.45;;;;;;;;;;2066387;28;20034;-65
2022/02/12 02:35:08;;;;;;;2.20;0.55;;;;;;;;;;2067933;28;20430;-66
2022/02/12 02:36:27;;;;;;;2.08;0.52;;;;;;;;;;2068154;28;20030;-65
2022/02/12 02:37:47;;;;;;;3.85;0.77;;;;;;;;;;2067493;28;20022;-64
2022/02/12 02:39:06;;;;;;;0.52;0.35;;;;;;;;;;2065354;28;20133;-65
2022/02/12 02:40:25;;;;;;;4.05;0.60;;;;;;;;;;2066669;28;20090;-66
2022/02/12 02:41:44;;;;;;;2.25;0.57;;;;;;;;;;2067259;28;20506;-65
2022/02/12 02:43:03;;;;;;;1.15;0.70;;;;;;;;;;2067308;28;20026;-65
2022/02/12 02:44:22;;;;;;;2.13;0.50;;;;;;;;;;2067952;28;20038;-65
2022/02/12 02:45:41;;;;;;;1.80;0.50;;;;;;;;;;2067100;28;20034;-66
2022/02/12 02:47:32;;;;;;;4.60;0.75;;;;;;;;;;2069755;28;20023;-65
2022/02/12 02:48:39;;;;;;;3.53;0.65;;;;;;;;;;2066575;28;20039;-65
2022/02/12 02:49:58;;;;;;;2.13;0.77;;;;;;;;;;2067847;28;20125;-65
2022/02/12 02:56:12;;;;;;;2.10;0.50;;;;;;;;;;2068594;28;20022;-65
2022/02/12 02:57:32;;;;;;;3.13;0.40;;;;;;;;;;2067057;28;20048;-65
2022/02/12 02:58:55;;;;;;;0.63;0.40;;;;;;;;;;2063417;28;20035;-65
2022/02/12 03:00:15;;;;;;;1.60;0.40;;;;;;;;;;2066943;28;20038;-65
2022/02/12 03:01:35;;;;;;;4.25;0.95;;;;;;;;;;2066326;28;20038;-65
2022/02/12 03:02:54;;;;;;;3.15;0.82;;;;;;;;;;2068029;28;20022;-65
2022/02/12 03:04:13;;;;;;;4.47;0.70;;;;;;;;;;2067166;28;20031;-65
2022/02/12 03:05:32;;;;;;;6.82;0.38;;;;;;;;;;2068090;28;20038;-65
2022/02/12 03:06:51;;;;;;;1.25;0.40;;;;;;;;;;2069224;28;20414;-65
2022/02/12 03:08:10;;;;;;;2.05;0.40;;;;;;;;;;2072887;28;20077;-65
2022/02/12 03:09:29;;;;;;;3.85;0.82;;;;;;;;;;2065714;28;20505;-65
2022/02/12 03:10:48;;;;;;;8.45;0.90;;;;;;;;;;2067962;28;20491;-64
2022/02/12 03:12:07;;;;;;;4.13;0.70;;;;;;;;;;2067513;28;20658;-65
2022/02/12 03:13:26;;;;;;;0.98;0.30;;;;;;;;;;2065931;28;20064;-65
2022/02/12 03:14:45;;;;;;;0.80;0.40;;;;;;;;;;2067523;28;20484;-65
2022/02/12 03:16:04;;;;;;;2.13;0.35;;;;;;;;;;2067261;28;20034;-65
2022/02/12 03:17:23;;;;;;;4.22;0.77;;;;;;;;;;2067219;28;20026;-65
2022/02/12 03:18:44;;;;;;;1.70;0.60;;;;;;;;;;2067530;28;20070;-65
2022/02/12 03:20:03;;;;;;;0.98;0.40;;;;;;;;;;2068258;28;20039;-65
2022/02/12 03:21:22;;;;;;;2.47;0.80;;;;;;;;;;2067509;28;20030;-65
2022/02/12 03:22:41;;;;;;;2.92;0.63;;;;;;;;;;2067341;28;20030;-65
2022/02/12 03:24:00;;;;;;;1.70;0.80;;;;;;;;;;2066442;28;20046;-65
2022/02/12 03:25:19;;;;;;;1.58;0.70;;;;;;;;;;2067826;28;20034;-64
2022/02/12 03:26:38;;;;;;;1.38;0.63;;;;;;;;;;2066091;28;20419;-64
2022/02/12 03:27:58;;;;;;;3.90;1.17;;;;;;;;;;2066818;28;20030;-65
2022/02/12 03:29:16;;;;;;;4.13;1.00;;;;;;;;;;2067613;28;20026;-65
2022/02/12 03:30:38;;;;;;;3.28;0.85;;;;;;;;;;2068902;28;20042;-65
2022/02/12 03:31:57;;;;;;;3.13;0.70;;;;;;;;;;2068055;28;20479;-65
2022/02/12 03:33:17;;;;;;;2.63;0.60;;;;;;;;;;2066786;28;20501;-65
2022/02/12 03:34:35;;;;;;;2.05;0.50;;;;;;;;;;2066719;28;20034;-65
2022/02/12 03:35:54;;;;;;;3.70;0.55;;;;;;;;;;2067406;28;20030;-65
2022/02/12 03:37:13;;;;;;;1.90;0.70;;;;;;;;;;2067230;28;20109;-64
2022/02/12 03:38:35;;;;;;;1.65;0.50;;;;;;;;;;2067997;28;20038;-65
2022/02/12 03:39:54;;;;;;;5.07;0.63;;;;;;;;;;2067712;28;20034;-65
2022/02/12 03:41:13;;;;;;;3.55;0.70;;;;;;;;;;2068337;28;20033;-65
2022/02/12 03:42:31;;;;;;;2.47;0.70;;;;;;;;;;2063279;28;20026;-64
2022/02/12 03:43:50;;;;;;;3.35;0.60;;;;;;;;;;2067681;28;20391;-65
2022/02/12 03:45:09;;;;;;;2.15;0.50;;;;;;;;;;2067025;28;20503;-65
2022/02/12 03:46:28;;;;;;;2.38;0.43;;;;;;;;;;2067086;28;20468;-64
2022/02/12 03:47:47;;;;;;;5.13;0.50;;;;;;;;;;2067843;28;20152;-65
2022/02/12 03:49:06;;;;;;;0.40;0.15;;;;;;;;;;2066196;28;20438;-65
2022/02/12 03:50:27;;;;;;;5.88;0.70;;;;;;;;;;2063288;28;20034;-65
2022/02/12 03:51:46;;;;;;;9.43;1.30;;;;;;;;;;2067222;28;20384;-65
2022/02/12 03:53:06;;;;;;;1.13;0.70;;;;;;;;;;2066693;28;20496;-65
2022/02/12 03:54:25;;;;;;;0.75;0.38;;;;;;;;;;2066314;28;20034;-65
2022/02/12 03:55:44;;;;;;;4.03;0.60;;;;;;;;;;2067112;28;20034;-65
2022/02/12 03:57:03;;;;;;;1.73;0.40;;;;;;;;;;2066911;28;20038;-65
2022/02/12 03:58:22;;;;;;;3.95;0.50;;;;;;;;;;2064409;28;20022;-65
2022/02/12 03:59:41;;;;;;;2.05;0.60;;;;;;;;;;2065977;28;20050;-65
2022/02/12 04:01:00;;;;;;;2.92;0.57;;;;;;;;;;2066798;28;20027;-65
2022/02/12 04:02:19;;;;;;;1.15;0.68;;;;;;;;;;2067476;28;20030;-65
2022/02/12 04:03:38;;;;;;;0.90;0.32;;;;;;;;;;2071256;28;20024;-65
2022/02/12 04:04:57;;;;;;;0.93;0.40;;;;;;;;;;2066150;28;20105;-65
2022/02/12 04:06:16;;;;;;;3.58;0.60;;;;;;;;;;2067646;28;20066;-65
2022/02/12 04:07:40;;;;;;;6.57;0.77;;;;;;;;;;2066425;28;20026;-65
2022/02/12 04:08:59;;;;;;;3.72;0.85;;;;;;;;;;2066896;28;20097;-64
2022/02/12 04:10:18;;;;;;;1.08;0.50;;;;;;;;;;2065878;28;20038;-66
2022/02/12 04:11:37;;;;;;;3.95;1.30;;;;;;;;;;2066929;28;20026;-65
2022/02/12 04:12:58;;;;;;;1.63;0.55;;;;;;;;;;2067067;28;20026;-65
2022/02/12 04:14:17;;;;;;;8.73;0.90;;;;;;;;;;2067436;28;20026;-65
2022/02/12 04:15:36;;;;;;;7.03;0.50;;;;;;;;;;2066449;28;20043;-65
2022/02/12 04:16:55;;;;;;;4.57;1.23;;;;;;;;;;2067109;28;20464;-64
2022/02/12 04:18:14;;;;;;;3.17;0.90;;;;;;;;;;2067210;28;20483;-65
2022/02/12 04:19:33;;;;;;;6.55;1.67;;;;;;;;;;2066262;28;20481;-65
2022/02/12 04:20:52;;;;;;;5.90;0.98;;;;;;;;;;2067142;28;20031;-64
2022/02/12 04:22:11;;;;;;;2.88;0.77;;;;;;;;;;2067331;28;20022;-65
2022/02/12 04:23:30;;;;;;;1.85;0.68;;;;;;;;;;2066226;28;20014;-64
2022/02/12 04:24:49;;;;;;;3.03;0.77;;;;;;;;;;2067679;28;20030;-66
2022/02/12 04:26:09;;;;;;;5.43;0.98;;;;;;;;;;2067503;28;20022;-64
2022/02/12 04:27:28;;;;;;;6.32;0.90;;;;;;;;;;2066975;28;20117;-64
2022/02/12 04:28:47;;;;;;;3.47;0.93;;;;;;;;;;2067630;28;20052;-64
2022/02/12 04:30:07;;;;;;;2.70;1.50;;;;;;;;;;2066824;28;20026;-64
2022/02/12 04:31:26;;;;;;;2.75;1.00;;;;;;;;;;2066127;28;20030;-62
2022/02/12 04:32:46;;;;;;;4.85;0.73;;;;;;;;;;2066575;28;20046;-64
2022/02/12 04:34:05;;;;;;;3.80;0.82;;;;;;;;;;2065913;28;20030;-64
2022/02/12 04:35:23;;;;;;;1.58;0.50;;;;;;;;;;2066037;28;20042;-64
2022/02/12 04:36:42;;;;;;;8.75;1.00;;;;;;;;;;2067027;28;20038;-64
2022/02/12 04:38:02;;;;;;;1.48;0.75;;;;;;;;;;2067707;28;20031;-63
2022/02/12 04:39:20;;;;;;;6.50;1.15;;;;;;;;;;2068473;28;20034;-65
2022/02/12 04:40:39;;;;;;;5.00;0.77;;;;;;;;;;2067861;28;20022;-64
2022/02/12 04:41:58;;;;;;;5.70;1.23;;;;;;;;;;2068560;28;20116;-64
2022/02/12 04:43:17;;;;;;;7.40;1.35;;;;;;;;;;2068485;28;20030;-64
2022/02/12 04:44:36;;;;;;;6.00;1.42;;;;;;;;;;2068513;28;20484;-64
2022/02/12 04:45:56;;;;;;;3.97;1.00;;;;;;;;;;2066808;28;20023;-64
2022/02/12 04:47:15;;;;;;;3.65;1.45;;;;;;;;;;2066145;28;20030;-65
2022/02/12 04:48:35;;;;;;;5.75;0.85;;;;;;;;;;2068074;28;20031;-64
2022/02/12 04:49:54;;;;;;;6.88;1.85;;;;;;;;;;2068304;28;20041;-64
2022/02/12 04:51:13;;;;;;;5.25;1.05;;;;;;;;;;2066855;28;20438;-64
2022/02/12 04:52:32;;;;;;;3.75;1.20;;;;;;;;;;2068167;28;20038;-63
2022/02/12 04:53:51;;;;;;;7.85;1.55;;;;;;;;;;2068721;28;20033;-64
2022/02/12 04:55:10;;;;;;;6.40;0.80;;;;;;;;;;2068528;28;20022;-65
2022/02/12 04:56:29;;;;;;;2.05;0.75;;;;;;;;;;2068099;28;20042;-64
2022/02/12 04:57:48;;;;;;;2.63;0.70;;;;;;;;;;2069072;28;20057;-64
2022/02/12 04:59:08;;;;;;;7.28;1.23;;;;;;;;;;2067518;28;20047;-64
2022/02/12 05:00:27;;;;;;;5.45;0.90;;;;;;;;;;2067908;28;20027;-64
2022/02/12 05:01:52;;;;;;;8.10;1.52;;;;;;;;;;2068260;28;20034;-65
2022/02/12 05:03:11;;;;;;;3.03;0.88;;;;;;;;;;2068072;28;20018;-65
2022/02/12 05:04:30;;;;;;;4.60;0.75;;;;;;;;;;2068262;28;20058;-64
2022/02/12 05:05:49;;;;;;;3.60;1.02;;;;;;;;;;2068059;28;20054;-64
2022/02/12 05:07:09;;;;;;;7.93;0.90;;;;;;;;;;2068663;28;20034;-65
2022/02/12 05:08:28;;;;;;;7.50;1.40;;;;;;;;;;2069955;28;20043;-64
2022/02/12 05:09:47;;;;;;;2.92;0.90;;;;;;;;;;2068196;28;20516;-65
2022/02/12 05:11:06;;;;;;;4.57;0.63;;;;;;;;;;2067243;28;20488;-64
2022/02/12 05:12:25;;;;;;;5.07;1.00;;;;;;;;;;2067875;28;20030;-64
2022/02/12 05:13:44;;;;;;;6.90;1.48;;;;;;;;;;2068089;28;20030;-64
2022/02/12 05:15:03;;;;;;;8.85;1.20;;;;;;;;;;2068429;28;20042;-64
2022/02/12 05:16:22;;;;;;;2.63;0.65;;;;;;;;;;2068121;28;20045;-65
2022/02/12 05:17:41;;;;;;;5.97;1.00;;;;;;;;;;2067034;28;20112;-64
2022/02/12 05:19:00;;;;;;;8.93;1.00;;;;;;;;;;2067679;28;20419;-64
2022/02/12 05:20:19;;;;;;;6.63;1.52;;;;;;;;;;2068611;28;20038;-64
2022/02/12 05:21:38;;;;;;;6.88;1.40;;;;;;;;;;2067491;28;20039;-64
2022/02/12 05:22:57;;;;;;;8.10;1.58;;;;;;;;;;2068186;28;20018;-64
2022/02/12 05:24:15;;;;;;;3.83;1.15;;;;;;;;;;2066931;28;20541;-65
2022/02/12 05:25:34;;;;;;;6.20;1.05;;;;;;;;;;2068159;28;20442;-64
2022/02/12 05:26:53;;;;;;;5.78;1.20;;;;;;;;;;2068326;28;20497;-64
2022/02/12 05:28:12;;;;;;;9.93;1.15;;;;;;;;;;2068336;28;20037;-64
2022/02/12 05:29:32;;;;;;;8.85;1.48;;;;;;;;;;2067818;28;20031;-65
2022/02/12 05:30:51;;;;;;;6.85;1.95;;;;;;;;;;2069275;28;20026;-65
2022/02/12 05:32:09;;;;;;;6.05;1.10;;;;;;;;;;2068405;28;20493;-65
2022/02/12 05:33:28;;;;;;;8.90;1.48;;;;;;;;;;2066722;28;20121;-65
2022/02/12 05:34:50;;;;;;;7.65;1.20;;;;;;;;;;2068382;28;20030;-65
2022/02/12 05:36:09;;;;;;;7.07;1.33;;;;;;;;;;2070119;28;20030;-65
2022/02/12 05:37:29;;;;;;;5.60;1.55;;;;;;;;;;2069292;28;20507;-65
2022/02/12 05:38:48;;;;;;;12.73;1.95;;;;;;;;;;2067708;28;20030;-65
2022/02/12 05:40:07;;;;;;;8.88;2.28;;;;;;;;;;2068125;28;20031;-65
2022/02/12 05:41:26;;;;;;;6.97;1.02;;;;;;;;;;2067077;28;20022;-65
2022/02/12 05:42:45;;;;;;;9.27;1.90;;;;;;;;;;2069652;28;20105;-66
2022/02/12 05:44:05;;;;;;;7.28;1.85;;;;;;;;;;2068201;28;20026;-65
2022/02/12 05:45:24;;;;;;;6.05;0.88;;;;;;;;;;2068092;28;20030;-64
2022/02/12 05:46:43;;;;;;;10.85;1.63;;;;;;;;;;2066762;28;20033;-65
2022/02/12 05:48:02;;;;;;;7.03;1.25;;;;;;;;;;2067545;28;20494;-65
2022/02/12 05:49:21;;;;;;;5.00;1.40;;;;;;;;;;2067787;28;20120;-65
2022/02/12 05:50:40;;;;;;;14.00;2.42;;;;;;;;;;2066791;28;20031;-66
2022/02/12 05:51:59;;;;;;;6.80;1.50;;;;;;;;;;2068593;28;20035;-65
2022/02/12 05:53:17;;;;;;;7.78;1.35;;;;;;;;;;2067782;28;20404;-65
2022/02/12 05:54:38;;;;;;;13.20;1.35;;;;;;;;;;2069288;28;20027;-65
2022/02/12 05:55:57;;;;;;;9.57;1.30;;;;;;;;;;2068291;28;20022;-64
2022/02/12 05:57:16;;;;;;;12.68;2.83;;;;;;;;;;2066894;28;20058;-64
2022/02/12 05:58:35;;;;;;;11.82;1.70;;;;;;;;;;2067479;28;20035;-64
2022/02/12 05:59:54;;;;;;;6.75;1.50;;;;;;;;;;2068632;28;20392;-64
2022/02/12 06:01:13;;;;;;;7.50;1.77;;;;;;;;;;2067635;28;20041;-64
2022/02/12 06:02:32;;;;;;;6.18;1.50;;;;;;;;;;2066719;28;20037;-65
2022/02/12 06:03:51;;;;;;;10.43;1.50;;;;;;;;;;2067287;28;20112;-65
2022/02/12 06:05:10;;;;;;;6.05;1.30;;;;;;;;;;2067664;28;20395;-64
2022/02/12 06:06:29;;;;;;;13.27;2.10;;;;;;;;;;2067666;28;20034;-65
2022/02/12 06:07:48;;;;;;;4.93;1.20;;;;;;;;;;2069555;28;20039;-65
2022/02/12 06:09:07;;;;;;;9.20;1.55;;;;;;;;;;2069052;28;20424;-65
2022/02/12 06:10:26;;;;;;;9.05;1.98;;;;;;;;;;2067555;28;20030;-65
2022/02/12 06:11:45;;;;;;;6.00;1.77;;;;;;;;;;2067810;28;20035;-65
2022/02/12 06:13:04;;;;;;;5.45;1.23;;;;;;;;;;2067665;28;20018;-65
2022/02/12 06:14:23;;;;;;;6.68;1.65;;;;;;;;;;2068107;28;20034;-65
2022/02/12 06:15:42;;;;;;;10.98;1.75;;;;;;;;;;2067855;28;20030;-65
2022/02/12 06:17:01;;;;;;;15.57;1.92;;;;;;;;;;2067639;28;20038;-65
2022/02/12 06:18:19;;;;;;;9.80;1.88;;;;;;;;;;2067180;28;20423;-64
2022/02/12 06:19:38;;;;;;;8.88;1.75;;;;;;;;;;2066024;28;20050;-65
2022/02/12 06:20:57;;;;;;;13.75;1.98;;;;;;;;;;2068118;28;20030;-65
2022/02/12 06:22:16;;;;;;;9.90;1.75;;;;;;;;;;2067275;28;20026;-66
2022/02/12 06:23:36;;;;;;;12.32;1.85;;;;;;;;;;2067344;28;20114;-67
2022/02/12 06:24:55;;;;;;;10.25;1.85;;;;;;;;;;2067813;28;20022;-67
2022/02/12 06:26:14;;;;;;;16.15;2.03;;;;;;;;;;2068238;28;20053;-67
2022/02/12 06:27:34;;;;;;;14.93;1.70;;;;;;;;;;2067077;28;20483;-67
2022/02/12 06:28:53;;;;;;;7.85;1.40;;;;;;;;;;2071266;28;20038;-66
2022/02/12 06:30:11;;;;;;;10.52;2.40;;;;;;;;;;2065781;28;20034;-67
2022/02/12 06:31:30;;;;;;;9.00;1.77;;;;;;;;;;2067558;28;20042;-67
2022/02/12 06:32:49;;;;;;;7.13;1.35;;;;;;;;;;2067079;28;20497;-67
2022/02/12 06:34:08;;;;;;;14.38;1.63;;;;;;;;;;2068064;28;20182;-67
2022/02/12 06:35:27;;;;;;;12.02;2.38;;;;;;;;;;2068021;28;20038;-67
2022/02/12 06:36:46;;;;;;;6.93;1.77;;;;;;;;;;2067358;28;20113;-66
2022/02/12 06:38:07;;;;;;;9.73;1.58;;;;;;;;;;2067173;28;20022;-67
2022/02/12 06:39:26;;;;;;;8.45;1.60;;;;;;;;;;2066476;28;20018;-67
2022/02/12 06:40:46;;;;;;;12.13;1.65;;;;;;;;;;2067365;28;20109;-67
2022/02/12 06:42:05;;;;;;;6.55;1.63;;;;;;;;;;2068003;28;20062;-67
2022/02/12 06:43:24;;;;;;;8.35;1.90;;;;;;;;;;2066858;28;20038;-67
2022/02/12 06:44:43;;;;;;;16.98;1.80;;;;;;;;;;2066716;28;20034;-67
2022/02/12 06:46:02;;;;;;;8.00;1.73;;;;;;;;;;2066776;28;20023;-67
2022/02/12 06:47:21;;;;;;;10.85;1.98;;;;;;;;;;2067036;28;20038;-67
2022/02/12 06:48:40;;;;;;;10.50;2.10;;;;;;;;;;2068112;28;20042;-67
2022/02/12 06:49:59;;;;;;;11.05;2.10;;;;;;;;;;2067303;28;20034;-67
2022/02/12 06:51:18;;;;;;;10.23;1.67;;;;;;;;;;2066859;28;20034;-67
2022/02/12 06:52:39;;;;;;;12.77;2.17;;;;;;;;;;2063387;28;20575;-67
2022/02/12 06:53:58;;;;;;;8.95;2.15;;;;;;;;;;2066950;28;20102;-67
2022/02/12 06:55:17;;;;;;;9.73;1.35;;;;;;;;;;2066782;28;20034;-67
2022/02/12 06:56:36;;;;;;;14.10;1.70;;;;;;;;;;2063475;28;20665;-67
2022/02/12 06:57:55;;;;;;;15.57;1.60;;;;;;;;;;2066411;28;20038;-66
2022/02/12 06:59:14;;;;;;;8.20;1.38;;;;;;;;;;2066710;28;20071;-67
2022/02/12 07:00:33;;;;;;;11.68;2.10;;;;;;;;;;2067470;28;20034;-67
2022/02/12 07:01:52;;;;;;;10.18;1.40;;;;;;;;;;2065420;28;20030;-67
2022/02/12 07:03:11;;;;;;;10.90;1.42;;;;;;;;;;2067054;28;20367;-67
2022/02/12 07:04:30;;;;;;;12.75;1.98;;;;;;;;;;2068049;28;20062;-67
2022/02/12 07:05:52;;;;;;;10.80;1.60;;;;;;;;;;2067066;28;20027;-67
2022/02/12 07:07:11;;;;;;;15.27;2.17;;;;;;;;;;2070805;28;20500;-67
2022/02/12 07:08:30;;;;;;;19.85;2.78;;;;;;;;;;2064336;28;20235;-67
2022/02/12 07:09:49;;;;;;;10.73;1.70;;;;;;;;;;2066962;28;20066;-67
2022/02/12 07:11:08;;;;;;;12.80;2.35;;;;;;;;;;2067450;28;20037;-67
2022/02/12 07:12:27;;;;;;;11.45;2.60;;;;;;;;;;2067948;28;20046;-67
2022/02/12 07:13:46;;;;;;;10.45;1.80;;;;;;;;;;2066706;28;20397;-67
2022/02/12 07:15:05;;;;;;;9.40;2.60;;;;;;;;;;2067197;28;20072;-67
2022/02/12 07:16:23;;;;;;;9.35;2.05;;;;;;;;;;2067331;28;20073;-67
2022/02/12 07:17:42;;;;;;;9.93;1.95;;;;;;;;;;2067214;28;20043;-67
2022/02/12 07:19:01;;;;;;;10.63;1.92;;;;;;;;;;2067066;28;20022;-67
2022/02/12 07:20:20;;;;;;;16.63;2.00;;;;;;;;;;2067158;28;20026;-67
2022/02/12 07:21:39;;;;;;;8.02;1.30;;;;;;;;;;2067247;28;20034;-67
2022/02/12 07:22:58;;;;;;;12.43;2.15;;;;;;;;;;2066882;28;20038;-67
2022/02/12 07:24:17;;;;;;;8.95;2.05;;;;;;;;;;2066788;28;20064;-67
2022/02/12 07:25:36;;;;;;;19.20;2.55;;;;;;;;;;2066766;28;20034;-67
2022/02/12 07:26:55;;;;;;;8.60;1.70;;;;;;;;;;2067561;28;20027;-67
2022/02/12 07:28:14;;;;;;;12.73;1.35;;;;;;;;;;2068122;28;20065;-67
2022/02/12 07:29:33;;;;;;;12.25;2.45;;;;;;;;;;2068259;28;20415;-66
2022/02/12 07:30:52;;;;;;;6.32;1.30;;;;;;;;;;2067051;28;20023;-67
2022/02/12 07:32:11;;;;;;;8.02;1.75;;;;;;;;;;2067013;28;20022;-66
2022/02/12 07:33:29;;;;;;;14.43;2.72;;;;;;;;;;2108877;28;20024;-67
2022/02/12 07:34:48;;;;;;;15.32;2.00;;;;;;;;;;2084243;28;20033;-67
2022/02/12 07:36:08;;;;;;;14.77;2.08;;;;;;;;;;2067422;28;20030;-67
2022/02/12 07:37:27;;;;;;;11.73;1.92;;;;;;;;;;2066566;28;20035;-65
2022/02/12 07:38:46;;;;;;;10.52;2.70;;;;;;;;;;2066070;28;20054;-67
2022/02/12 07:40:06;;;;;;;11.98;1.92;;;;;;;;;;2068478;28;20018;-66
2022/02/12 07:41:26;;;;;;;16.58;2.65;;;;;;;;;;2070783;28;20027;-67
2022/02/12 07:42:47;;;;;;;12.25;2.00;;;;;;;;;;2066733;28;20484;-67
2022/02/12 07:44:06;;;;;;;13.05;2.05;;;;;;;;;;2069979;28;20034;-68
2022/02/12 07:45:25;;;;;;;20.33;2.20;;;;;;;;;;2067252;28;20026;-67
2022/02/12 07:46:45;;;;;;;8.40;1.23;;;;;;;;;;2065883;28;20071;-67
2022/02/12 07:48:04;;;;;;;15.43;1.63;;;;;;;;;;2066698;28;20034;-67
2022/02/12 07:49:23;;;;;;;10.27;2.08;;;;;;;;;;2065911;28;20392;-67
2022/02/12 07:50:42;;;;;;;13.20;1.90;;;;;;;;;;2065802;28;20498;-67
2022/02/12 07:52:01;;;;;;;12.27;2.20;;;;;;;;;;2066595;28;20034;-66
2022/02/12 07:53:20;;;;;;;13.25;2.45;;;;;;;;;;2066005;28;20038;-67
2022/02/12 07:54:39;;;;;;;10.30;1.83;;;;;;;;;;2066350;28;20456;-66
2022/02/12 07:55:58;;;;;;;14.57;2.42;;;;;;;;;;2065958;28;20030;-66
2022/02/12 07:57:17;;;;;;;4.97;1.60;;;;;;;;;;2066289;28;20069;-67
2022/02/12 07:58:38;;;;;;;7.38;2.53;;;;;;;;;;2058723;28;20093;-67